Terminal Aerodrome Forecast
Issued by NWS Grand Forks, ND

Home | Current Version | Previous Version | Graphics & Text | Print | Product List | Glossary On
Versions: 1 2 3 4 5 6 7 8 9 10 11 12 13 14 15 16 17 18 19 20 21 22 23 24 25 26 27
923
FTUS43 KFGF 262338
TAFGFK
TAF
KGFK 262338Z 2700/2724 17003KT P6SM SCT100
     FM270800 00000KT 1 1/2SM BR FEW008
     FM271000 00000KT 1/2SM FG FEW008
     FM271500 VRB03KT 1 1/2SM BR FEW010
     FM271700 VRB03KT P6SM FEW060=

USA.gov is the U.S. government's official web portal to all federal, state and local government web resources and services.